sensor_id;sensor_type;location;lat;lon;timestamp;pressure;altitude;pressure_sealevel;temperature;humidity
61870;BME280;47810;42.264;23.826;2022-10-28T00:00:20;95091.09;;;10.04;62.88
61870;BME280;47810;42.264;23.826;2022-10-28T00:02:46;95098.13;;;10.06;62.98
61870;BME280;47810;42.264;23.826;2022-10-28T00:05:11;95090.69;;;10.14;64.01
61870;BME280;47810;42.264;23.826;2022-10-28T00:07:37;95091.91;;;10.27;65.38
61870;BME280;47810;42.264;23.826;2022-10-28T00:10:03;95098.25;;;10.02;62.80
61870;BME280;47810;42.264;23.826;2022-10-28T00:12:28;95099.09;;;9.83;63.30
61870;BME280;47810;42.264;23.826;2022-10-28T00:14:55;95097.72;;;9.94;62.95
61870;BME280;47810;42.264;23.826;2022-10-28T00:17:20;95102.41;;;10.08;62.13
61870;BME280;47810;42.264;23.826;2022-10-28T00:19:46;95091.41;;;10.17;62.20
61870;BME280;47810;42.264;23.826;2022-10-28T00:22:12;95090.84;;;10.11;62.09
61870;BME280;47810;42.264;23.826;2022-10-28T00:24:37;95096.50;;;10.01;62.78
61870;BME280;47810;42.264;23.826;2022-10-28T00:27:03;95089.91;;;9.91;63.07
61870;BME280;47810;42.264;23.826;2022-10-28T00:29:28;95095.72;;;9.79;63.09
61870;BME280;47810;42.264;23.826;2022-10-28T00:31:56;95090.44;;;9.79;63.34
61870;BME280;47810;42.264;23.826;2022-10-28T00:34:22;95095.06;;;9.74;63.45
61870;BME280;47810;42.264;23.826;2022-10-28T00:36:48;95090.84;;;9.70;63.70
61870;BME280;47810;42.264;23.826;2022-10-28T00:39:18;95089.06;;;9.91;62.60
61870;BME280;47810;42.264;23.826;2022-10-28T00:41:57;95092.78;;;9.87;63.79
61870;BME280;47810;42.264;23.826;2022-10-28T00:49:35;95091.84;;;9.88;64.28
61870;BME280;47810;42.264;23.826;2022-10-28T00:52:05;95088.59;;;10.01;63.93
61870;BME280;47810;42.264;23.826;2022-10-28T00:54:32;95082.41;;;10.02;63.46
61870;BME280;47810;42.264;23.826;2022-10-28T00:56:58;95087.56;;;10.06;63.24
61870;BME280;47810;42.264;23.826;2022-10-28T00:59:29;95089.59;;;10.19;61.95
61870;BME280;47810;42.264;23.826;2022-10-28T01:01:56;95083.41;;;10.41;60.96
61870;BME280;47810;42.264;23.826;2022-10-28T01:04:21;95087.06;;;10.16;61.58
61870;BME280;47810;42.264;23.826;2022-10-28T01:06:47;95083.94;;;10.29;61.25
61870;BME280;47810;42.264;23.826;2022-10-28T01:09:13;95084.13;;;10.03;63.22
61870;BME280;47810;42.264;23.826;2022-10-28T01:22:33;95086.16;;;10.17;62.27
61870;BME280;47810;42.264;23.826;2022-10-28T01:30:22;95093.63;;;9.87;63.16
61870;BME280;47810;42.264;23.826;2022-10-28T01:32:54;95093.63;;;9.87;65.96
61870;BME280;47810;42.264;23.826;2022-10-28T01:40:46;95092.94;;;9.82;65.11
61870;BME280;47810;42.264;23.826;2022-10-28T01:43:40;95104.16;;;9.87;68.02
61870;BME280;47810;42.264;23.826;2022-10-28T01:46:16;95097.78;;;9.93;68.15
61870;BME280;47810;42.264;23.826;2022-10-28T01:48:45;95095.16;;;9.93;67.79
61870;BME280;47810;42.264;23.826;2022-10-28T01:51:20;95100.81;;;10.04;64.69
61870;BME280;47810;42.264;23.826;2022-10-28T01:53:48;95098.63;;;9.93;64.90
61870;BME280;47810;42.264;23.826;2022-10-28T01:56:16;95092.31;;;9.77;64.31
61870;BME280;47810;42.264;23.826;2022-10-28T01:58:43;95100.84;;;9.82;66.47
61870;BME280;47810;42.264;23.826;2022-10-28T02:01:09;95108.72;;;9.84;64.59
61870;BME280;47810;42.264;23.826;2022-10-28T02:03:35;95099.75;;;9.88;65.27
61870;BME280;47810;42.264;23.826;2022-10-28T02:06:02;95096.94;;;9.92;64.08
61870;BME280;47810;42.264;23.826;2022-10-28T02:19:24;95115.97;;;9.36;67.33
61870;BME280;47810;42.264;23.826;2022-10-28T02:27:06;95111.22;;;9.00;66.21
61870;BME280;47810;42.264;23.826;2022-10-28T02:29:40;95110.72;;;8.91;66.52
61870;BME280;47810;42.264;23.826;2022-10-28T02:32:11;95114.06;;;8.96;66.44
61870;BME280;47810;42.264;23.826;2022-10-28T02:34:41;95103.81;;;8.88;66.67
61870;BME280;47810;42.264;23.826;2022-10-28T02:37:13;95112.53;;;8.90;66.72
61870;BME280;47810;42.264;23.826;2022-10-28T02:39:41;95107.13;;;8.93;66.89
61870;BME280;47810;42.264;23.826;2022-10-28T02:42:12;95108.28;;;8.86;66.81
61870;BME280;47810;42.264;23.826;2022-10-28T02:44:42;95102.75;;;8.92;66.77
61870;BME280;47810;42.264;23.826;2022-10-28T02:47:11;95110.25;;;9.03;66.44
61870;BME280;47810;42.264;23.826;2022-10-28T02:49:38;95109.88;;;8.90;66.64
61870;BME280;47810;42.264;23.826;2022-10-28T02:52:05;95100.56;;;8.81;66.95
61870;BME280;47810;42.264;23.826;2022-10-28T02:54:34;95102.34;;;8.81;68.07
61870;BME280;47810;42.264;23.826;2022-10-28T02:59:30;95113.13;;;8.97;69.13
61870;BME280;47810;42.264;23.826;2022-10-28T03:01:56;95120.56;;;9.09;70.35
61870;BME280;47810;42.264;23.826;2022-10-28T03:04:27;95119.56;;;9.12;68.38
61870;BME280;47810;42.264;23.826;2022-10-28T03:06:53;95118.72;;;9.11;68.44
61870;BME280;47810;42.264;23.826;2022-10-28T03:09:19;95116.88;;;9.35;65.65
61870;BME280;47810;42.264;23.826;2022-10-28T03:11:45;95117.97;;;9.07;66.10
61870;BME280;47810;42.264;23.826;2022-10-28T03:14:10;95111.09;;;8.81;66.51
61870;BME280;47810;42.264;23.826;2022-10-28T03:16:37;95109.88;;;8.90;66.54
61870;BME280;47810;42.264;23.826;2022-10-28T03:19:02;95115.56;;;8.56;67.66
61870;BME280;47810;42.264;23.826;2022-10-28T03:21:28;95113.00;;;8.54;67.93
61870;BME280;47810;42.264;23.826;2022-10-28T03:23:53;95113.63;;;8.61;68.08
61870;BME280;47810;42.264;23.826;2022-10-28T03:26:19;95117.44;;;8.52;68.13
61870;BME280;47810;42.264;23.826;2022-10-28T03:28:46;95112.19;;;8.52;68.55
61870;BME280;47810;42.264;23.826;2022-10-28T03:31:11;95109.56;;;8.52;68.40
61870;BME280;47810;42.264;23.826;2022-10-28T03:33:39;95111.16;;;8.56;68.19
61870;BME280;47810;42.264;23.826;2022-10-28T03:36:05;95115.03;;;8.46;68.34
61870;BME280;47810;42.264;23.826;2022-10-28T03:38:31;95115.16;;;8.43;68.13
61870;BME280;47810;42.264;23.826;2022-10-28T03:40:56;95116.31;;;8.34;69.23
61870;BME280;47810;42.264;23.826;2022-10-28T03:43:22;95115.47;;;8.34;68.79
61870;BME280;47810;42.264;23.826;2022-10-28T03:48:16;95121.78;;;8.53;69.22
61870;BME280;47810;42.264;23.826;2022-10-28T03:50:42;95125.56;;;8.46;68.37
61870;BME280;47810;42.264;23.826;2022-10-28T03:53:08;95128.16;;;8.48;68.44
61870;BME280;47810;42.264;23.826;2022-10-28T03:55:33;95117.69;;;8.46;67.98
61870;BME280;47810;42.264;23.826;2022-10-28T03:57:59;95119.38;;;8.47;68.25
61870;BME280;47810;42.264;23.826;2022-10-28T04:00:25;95122.66;;;8.54;67.58
61870;BME280;47810;42.264;23.826;2022-10-28T04:02:51;95117.13;;;8.61;70.45
61870;BME280;47810;42.264;23.826;2022-10-28T04:05:20;95113.13;;;8.51;68.19
61870;BME280;47810;42.264;23.826;2022-10-28T04:07:46;95106.91;;;8.52;67.78
61870;BME280;47810;42.264;23.826;2022-10-28T04:10:12;95120.00;;;8.54;68.02
61870;BME280;47810;42.264;23.826;2022-10-28T04:12:37;95118.16;;;8.57;69.97
61870;BME280;47810;42.264;23.826;2022-10-28T04:15:03;95121.34;;;8.66;71.40
61870;BME280;47810;42.264;23.826;2022-10-28T04:17:29;95119.75;;;8.61;69.63
61870;BME280;47810;42.264;23.826;2022-10-28T04:19:54;95118.59;;;8.45;68.95
61870;BME280;47810;42.264;23.826;2022-10-28T04:22:20;95128.50;;;8.38;68.60
61870;BME280;47810;42.264;23.826;2022-10-28T04:24:46;95119.34;;;8.24;68.76
61870;BME280;47810;42.264;23.826;2022-10-28T04:27:12;95125.78;;;8.15;68.88
61870;BME280;47810;42.264;23.826;2022-10-28T04:29:38;95124.06;;;8.14;69.18
61870;BME280;47810;42.264;23.826;2022-10-28T04:32:03;95124.28;;;8.08;69.30
61870;BME280;47810;42.264;23.826;2022-10-28T04:34:29;95117.13;;;8.36;68.38
61870;BME280;47810;42.264;23.826;2022-10-28T04:36:54;95133.63;;;8.16;68.92
61870;BME280;47810;42.264;23.826;2022-10-28T04:39:20;95123.75;;;8.23;68.32
61870;BME280;47810;42.264;23.826;2022-10-28T04:41:45;95118.91;;;8.36;68.15
61870;BME280;47810;42.264;23.826;2022-10-28T04:44:11;95118.28;;;8.04;68.97
61870;BME280;47810;42.264;23.826;2022-10-28T04:46:36;95111.94;;;7.85;70.24
61870;BME280;47810;42.264;23.826;2022-10-28T04:49:02;95112.88;;;7.84;70.17
61870;BME280;47810;42.264;23.826;2022-10-28T04:51:29;95107.75;;;7.79;70.37
61870;BME280;47810;42.264;23.826;2022-10-28T04:53:54;95105.59;;;7.65;70.60
61870;BME280;47810;42.264;23.826;2022-10-28T04:56:20;95113.34;;;7.95;72.56
61870;BME280;47810;42.264;23.826;2022-10-28T04:58:45;95111.19;;;8.06;72.52
61870;BME280;47810;42.264;23.826;2022-10-28T05:01:11;95117.09;;;8.13;72.34
61870;BME280;47810;42.264;23.826;2022-10-28T05:03:37;95108.53;;;8.31;70.14
61870;BME280;47810;42.264;23.826;2022-10-28T05:06:02;95113.63;;;8.12;70.03
61870;BME280;47810;42.264;23.826;2022-10-28T05:08:28;95116.47;;;8.06;70.30
61870;BME280;47810;42.264;23.826;2022-10-28T05:10:53;95116.19;;;8.14;71.51
61870;BME280;47810;42.264;23.826;2022-10-28T05:13:20;95116.78;;;8.22;71.85
61870;BME280;47810;42.264;23.826;2022-10-28T05:15:49;95114.28;;;8.17;70.71
61870;BME280;47810;42.264;23.826;2022-10-28T05:18:15;95123.22;;;8.13;70.45
61870;BME280;47810;42.264;23.826;2022-10-28T05:20:41;95124.06;;;8.14;71.19
61870;BME280;47810;42.264;23.826;2022-10-28T05:23:08;95134.59;;;8.14;71.47
61870;BME280;47810;42.264;23.826;2022-10-28T05:25:33;95142.19;;;8.22;71.06
61870;BME280;47810;42.264;23.826;2022-10-28T05:27:59;95142.19;;;8.22;71.09
61870;BME280;47810;42.264;23.826;2022-10-28T05:30:25;95141.47;;;8.43;70.12
61870;BME280;47810;42.264;23.826;2022-10-28T05:32:51;95144.47;;;8.32;71.82
61870;BME280;47810;42.264;23.826;2022-10-28T05:35:23;95147.78;;;8.39;72.26
61870;BME280;47810;42.264;23.826;2022-10-28T05:37:49;95142.44;;;8.40;72.21
61870;BME280;47810;42.264;23.826;2022-10-28T05:40:14;95148.19;;;8.52;71.28
61870;BME280;47810;42.264;23.826;2022-10-28T05:42:41;95164.38;;;8.41;70.40
61870;BME280;47810;42.264;23.826;2022-10-28T05:45:08;95156.94;;;8.52;69.93
61870;BME280;47810;42.264;23.826;2022-10-28T05:47:34;95153.25;;;8.56;69.82
61870;BME280;47810;42.264;23.826;2022-10-28T05:50:00;95153.97;;;8.61;69.66
61870;BME280;47810;42.264;23.826;2022-10-28T05:52:25;95161.00;;;8.36;70.51
61870;BME280;47810;42.264;23.826;2022-10-28T05:54:52;95172.16;;;8.17;71.39
61870;BME280;47810;42.264;23.826;2022-10-28T05:57:18;95166.25;;;8.11;71.46
61870;BME280;47810;42.264;23.826;2022-10-28T05:59:43;95165.09;;;8.20;71.25
61870;BME280;47810;42.264;23.826;2022-10-28T06:02:12;95177.84;;;8.05;71.96
61870;BME280;47810;42.264;23.826;2022-10-28T06:04:39;95172.69;;;8.02;72.36
61870;BME280;47810;42.264;23.826;2022-10-28T06:07:05;95172.28;;;8.14;72.69
61870;BME280;47810;42.264;23.826;2022-10-28T06:09:30;95171.84;;;8.27;73.17
61870;BME280;47810;42.264;23.826;2022-10-28T06:11:56;95174.16;;;8.36;72.71
61870;BME280;47810;42.264;23.826;2022-10-28T06:14:21;95173.91;;;8.44;72.14
61870;BME280;47810;42.264;23.826;2022-10-28T06:16:47;95174.66;;;8.47;71.88
61870;BME280;47810;42.264;23.826;2022-10-28T06:19:12;95169.91;;;8.57;72.62
61870;BME280;47810;42.264;23.826;2022-10-28T06:21:38;95167.13;;;8.61;72.34
61870;BME280;47810;42.264;23.826;2022-10-28T06:24:03;95173.78;;;8.72;72.89
61870;BME280;47810;42.264;23.826;2022-10-28T06:26:30;95172.63;;;8.79;73.14
61870;BME280;47810;42.264;23.826;2022-10-28T06:28:56;95174.19;;;8.84;72.97
61870;BME280;47810;42.264;23.826;2022-10-28T06:31:23;95172.88;;;8.96;71.93
61870;BME280;47810;42.264;23.826;2022-10-28T06:33:49;95171.13;;;8.95;72.56
61870;BME280;47810;42.264;23.826;2022-10-28T06:36:14;95170.16;;;8.98;71.88
61870;BME280;47810;42.264;23.826;2022-10-28T06:38:40;95171.75;;;9.02;72.13
61870;BME280;47810;42.264;23.826;2022-10-28T06:41:05;95175.94;;;9.07;72.41
61870;BME280;47810;42.264;23.826;2022-10-28T06:43:33;95174.09;;;9.09;71.88
61870;BME280;47810;42.264;23.826;2022-10-28T06:46:02;95174.78;;;9.15;71.87
61870;BME280;47810;42.264;23.826;2022-10-28T06:48:28;95166.88;;;9.15;72.07
61870;BME280;47810;42.264;23.826;2022-10-28T06:50:55;95173.63;;;9.22;71.71
61870;BME280;47810;42.264;23.826;2022-10-28T06:53:21;95173.41;;;9.28;71.23
61870;BME280;47810;42.264;23.826;2022-10-28T06:55:52;95172.59;;;9.26;70.78
61870;BME280;47810;42.264;23.826;2022-10-28T06:58:18;95180.16;;;9.35;70.82
61870;BME280;47810;42.264;23.826;2022-10-28T07:00:43;95180.03;;;9.38;70.85
61870;BME280;47810;42.264;23.826;2022-10-28T07:03:09;95177.06;;;9.46;71.05
61870;BME280;47810;42.264;23.826;2022-10-28T07:05:35;95179.47;;;9.52;70.79
61870;BME280;47810;42.264;23.826;2022-10-28T07:08:00;95180.19;;;9.55;70.04
61870;BME280;47810;42.264;23.826;2022-10-28T07:10:26;95172.28;;;9.55;69.96
61870;BME280;47810;42.264;23.826;2022-10-28T07:12:52;95172.16;;;9.59;69.77
61870;BME280;47810;42.264;23.826;2022-10-28T07:15:17;95175.38;;;9.67;69.81
61870;BME280;47810;42.264;23.826;2022-10-28T07:17:44;95171.91;;;9.65;70.18
61870;BME280;47810;42.264;23.826;2022-10-28T07:20:16;95170.81;;;9.70;69.60
61870;BME280;47810;42.264;23.826;2022-10-28T07:22:42;95170.63;;;9.75;70.06
61870;BME280;47810;42.264;23.826;2022-10-28T07:25:07;95176.38;;;9.85;69.33
61870;BME280;47810;42.264;23.826;2022-10-28T07:27:33;95175.34;;;9.89;69.27
61870;BME280;47810;42.264;23.826;2022-10-28T07:29:59;95169.28;;;10.07;69.10
61870;BME280;47810;42.264;23.826;2022-10-28T07:32:25;95167.56;;;10.28;68.78
61870;BME280;47810;42.264;23.826;2022-10-28T07:34:57;95162.28;;;10.28;68.69
61870;BME280;47810;42.264;23.826;2022-10-28T07:37:23;95176.09;;;10.33;68.24
61870;BME280;47810;42.264;23.826;2022-10-28T07:39:48;95170.84;;;10.54;67.77
61870;BME280;47810;42.264;23.826;2022-10-28T07:42:14;95174.78;;;10.64;67.20
61870;BME280;47810;42.264;23.826;2022-10-28T07:44:40;95182.03;;;10.79;65.89
61870;BME280;47810;42.264;23.826;2022-10-28T07:47:05;95181.09;;;10.80;66.63
61870;BME280;47810;42.264;23.826;2022-10-28T07:49:31;95178.44;;;10.80;66.63
61870;BME280;47810;42.264;23.826;2022-10-28T07:51:58;95178.50;;;11.18;65.95
61870;BME280;47810;42.264;23.826;2022-10-28T07:54:23;95177.41;;;11.22;65.07
61870;BME280;47810;42.264;23.826;2022-10-28T07:56:49;95173.19;;;11.37;65.47
61870;BME280;47810;42.264;23.826;2022-10-28T07:59:14;95168.94;;;11.52;65.66
61870;BME280;47810;42.264;23.826;2022-10-28T08:01:40;95173.75;;;11.62;65.21
61870;BME280;47810;42.264;23.826;2022-10-28T08:04:07;95166.06;;;11.94;62.37
61870;BME280;47810;42.264;23.826;2022-10-28T08:06:32;95162.56;;;12.11;63.03
61870;BME280;47810;42.264;23.826;2022-10-28T08:08:58;95157.38;;;12.60;62.35
61870;BME280;47810;42.264;23.826;2022-10-28T08:11:24;95160.69;;;13.14;59.80
61870;BME280;47810;42.264;23.826;2022-10-28T08:13:51;95162.25;;;13.34;59.95
61870;BME280;47810;42.264;23.826;2022-10-28T08:16:17;95163.78;;;13.70;59.40
61870;BME280;47810;42.264;23.826;2022-10-28T08:18:43;95162.72;;;14.04;59.34
61870;BME280;47810;42.264;23.826;2022-10-28T08:21:11;95163.56;;;14.35;57.72
61870;BME280;47810;42.264;23.826;2022-10-28T08:23:37;95158.00;;;14.70;57.82
61870;BME280;47810;42.264;23.826;2022-10-28T08:26:03;95161.63;;;15.11;56.21
61870;BME280;47810;42.264;23.826;2022-10-28T08:28:30;95155.59;;;15.51;53.39
61870;BME280;47810;42.264;23.826;2022-10-28T08:31:00;95144.22;;;15.90;52.96
61870;BME280;47810;42.264;23.826;2022-10-28T08:33:26;95152.22;;;16.30;52.38
61870;BME280;47810;42.264;23.826;2022-10-28T08:35:52;95145.84;;;16.45;50.75
61870;BME280;47810;42.264;23.826;2022-10-28T08:38:17;95147.19;;;16.78;49.75
61870;BME280;47810;42.264;23.826;2022-10-28T08:40:57;95145.59;;;17.14;49.82
61870;BME280;47810;42.264;23.826;2022-10-28T08:49:09;95147.84;;;17.82;48.34
61870;BME280;47810;42.264;23.826;2022-10-28T08:51:57;95139.50;;;18.11;47.29
61870;BME280;47810;42.264;23.826;2022-10-28T08:57:00;95138.69;;;18.68;45.20
61870;BME280;47810;42.264;23.826;2022-10-28T08:59:30;95140.47;;;18.80;44.99
61870;BME280;47810;42.264;23.826;2022-10-28T09:01:57;95141.59;;;18.89;45.05
61870;BME280;47810;42.264;23.826;2022-10-28T09:06:52;95137.38;;;19.31;43.90
61870;BME280;47810;42.264;23.826;2022-10-28T09:09:19;95133.72;;;19.55;43.49
61870;BME280;47810;42.264;23.826;2022-10-28T09:16:42;95119.75;;;20.06;40.79
61870;BME280;47810;42.264;23.826;2022-10-28T09:19:21;95114.69;;;20.24;41.18
61870;BME280;47810;42.264;23.826;2022-10-28T09:21:58;95111.19;;;20.44;40.91
61870;BME280;47810;42.264;23.826;2022-10-28T09:27:04;95117.47;;;20.87;38.83
61870;BME280;47810;42.264;23.826;2022-10-28T09:29:43;95107.88;;;20.94;39.39
61870;BME280;47810;42.264;23.826;2022-10-28T09:32:25;95113.94;;;21.17;37.63
61870;BME280;47810;42.264;23.826;2022-10-28T09:35:00;95104.56;;;21.11;37.07
61870;BME280;47810;42.264;23.826;2022-10-28T09:37:34;95102.00;;;21.00;37.12
61870;BME280;47810;42.264;23.826;2022-10-28T09:40:11;95099.53;;;21.18;37.38
61870;BME280;47810;42.264;23.826;2022-10-28T09:42:42;95099.56;;;21.28;37.28
61870;BME280;47810;42.264;23.826;2022-10-28T09:45:13;95096.56;;;21.42;37.92
61870;BME280;47810;42.264;23.826;2022-10-28T09:48:27;95083.34;;;21.79;36.58
61870;BME280;47810;42.264;23.826;2022-10-28T09:50:34;95088.47;;;21.92;35.71
61870;BME280;47810;42.264;23.826;2022-10-28T09:53:08;95080.06;;;22.16;34.51
61870;BME280;47810;42.264;23.826;2022-10-28T09:55:37;95077.47;;;22.15;34.71
61870;BME280;47810;42.264;23.826;2022-10-28T09:58:03;95071.50;;;22.01;34.46
61870;BME280;47810;42.264;23.826;2022-10-28T10:00:28;95077.88;;;22.00;36.38
61870;BME280;47810;42.264;23.826;2022-10-28T10:02:56;95068.16;;;22.19;34.71
61870;BME280;47810;42.264;23.826;2022-10-28T10:05:23;95078.22;;;22.36;34.34
61870;BME280;47810;42.264;23.826;2022-10-28T10:08:11;95069.28;;;22.55;34.34
61870;BME280;47810;42.264;23.826;2022-10-28T10:13:34;95060.66;;;22.51;33.51
61870;BME280;47810;42.264;23.826;2022-10-28T10:16:03;95060.72;;;22.79;33.51
61870;BME280;47810;42.264;23.826;2022-10-28T10:21:01;95058.28;;;23.42;32.47
61870;BME280;47810;42.264;23.826;2022-10-28T10:23:35;95057.00;;;23.74;32.11
61870;BME280;47810;42.264;23.826;2022-10-28T10:28:27;95052.41;;;23.84;31.46
61870;BME280;47810;42.264;23.826;2022-10-28T10:30:55;95056.59;;;23.97;30.95
61870;BME280;47810;42.264;23.826;2022-10-28T10:33:34;95054.59;;;23.99;32.08
61870;BME280;47810;42.264;23.826;2022-10-28T10:38:28;95045.41;;;23.64;30.97
61870;BME280;47810;42.264;23.826;2022-10-28T10:40:56;95036.16;;;23.94;31.03
61870;BME280;47810;42.264;23.826;2022-10-28T10:43:28;95041.16;;;23.61;30.22
61870;BME280;47810;42.264;23.826;2022-10-28T10:48:24;95040.00;;;23.91;31.93
61870;BME280;47810;42.264;23.826;2022-10-28T10:50:51;95038.81;;;24.22;30.81
61870;BME280;47810;42.264;23.826;2022-10-28T10:53:22;95034.78;;;24.26;29.89
61870;BME280;47810;42.264;23.826;2022-10-28T10:55:50;95028.72;;;24.42;29.45
61870;BME280;47810;42.264;23.826;2022-10-28T10:58:17;95027.84;;;24.23;28.97
61870;BME280;47810;42.264;23.826;2022-10-28T11:00:48;95026.06;;;24.14;29.31
61870;BME280;47810;42.264;23.826;2022-10-28T11:03:20;95021.91;;;24.02;29.88
61870;BME280;47810;42.264;23.826;2022-10-28T11:05:51;95020.03;;;24.20;29.96
61870;BME280;47810;42.264;23.826;2022-10-28T11:13:33;95012.75;;;24.74;28.65
61870;BME280;47810;42.264;23.826;2022-10-28T11:16:03;95005.34;;;24.76;29.84
61870;BME280;47810;42.264;23.826;2022-10-28T11:18:51;95009.06;;;24.75;30.58
61870;BME280;47810;42.264;23.826;2022-10-28T11:24:05;95007.41;;;25.08;27.71
61870;BME280;47810;42.264;23.826;2022-10-28T11:26:37;95007.19;;;25.02;28.09
61870;BME280;47810;42.264;23.826;2022-10-28T11:29:07;94993.28;;;24.89;27.69
61870;BME280;47810;42.264;23.826;2022-10-28T11:39:32;94989.84;;;24.78;29.75
61870;BME280;47810;42.264;23.826;2022-10-28T11:44:56;94988.91;;;24.96;28.21
61870;BME280;47810;42.264;23.826;2022-10-28T11:50:11;94987.97;;;24.79;28.91
61870;BME280;47810;42.264;23.826;2022-10-28T11:52:52;94987.59;;;25.00;29.38
61870;BME280;47810;42.264;23.826;2022-10-28T12:00:29;94981.38;;;24.81;28.11
61870;BME280;47810;42.264;23.826;2022-10-28T12:05:45;94982.91;;;25.10;26.42
61870;BME280;47810;42.264;23.826;2022-10-28T12:11:00;94973.75;;;25.03;26.49
61870;BME280;47810;42.264;23.826;2022-10-28T12:21:34;94960.69;;;24.90;27.29
61870;BME280;47810;42.264;23.826;2022-10-28T12:24:02;94960.94;;;25.05;28.23
61870;BME280;47810;42.264;23.826;2022-10-28T12:26:38;94958.06;;;25.06;27.13
61870;BME280;47810;42.264;23.826;2022-10-28T12:29:16;94953.91;;;25.12;27.81
61870;BME280;47810;42.264;23.826;2022-10-28T12:31:51;94945.28;;;25.59;25.72
61870;BME280;47810;42.264;23.826;2022-10-28T12:34:23;94947.94;;;25.43;25.41
61870;BME280;47810;42.264;23.826;2022-10-28T12:37:40;94946.50;;;25.14;26.44
61870;BME280;47810;42.264;23.826;2022-10-28T12:42:44;94944.53;;;25.06;27.26
61870;BME280;47810;42.264;23.826;2022-10-28T12:45:13;94943.22;;;25.10;27.86
61870;BME280;47810;42.264;23.826;2022-10-28T12:47:51;94941.19;;;25.04;25.50
61870;BME280;47810;42.264;23.826;2022-10-28T12:57:54;94941.00;;;24.28;26.32
61870;BME280;47810;42.264;23.826;2022-10-28T13:00:25;94936.78;;;24.25;27.40
61870;BME280;47810;42.264;23.826;2022-10-28T13:03:00;94941.34;;;24.07;27.36
61870;BME280;47810;42.264;23.826;2022-10-28T13:05:28;94933.56;;;24.04;26.89
61870;BME280;47810;42.264;23.826;2022-10-28T13:28:35;94936.19;;;23.05;28.59
61870;BME280;47810;42.264;23.826;2022-10-28T13:31:06;94929.44;;;22.91;28.43
61870;BME280;47810;42.264;23.826;2022-10-28T13:33:34;94944.16;;;22.59;30.69
61870;BME280;47810;42.264;23.826;2022-10-28T13:38:42;94946.94;;;22.30;29.80
61870;BME280;47810;42.264;23.826;2022-10-28T13:49:28;94946.13;;;21.81;30.32
61870;BME280;47810;42.264;23.826;2022-10-28T13:51:59;94935.63;;;21.97;29.29
61870;BME280;47810;42.264;23.826;2022-10-28T13:57:45;94940.44;;;21.65;30.71
61870;BME280;47810;42.264;23.826;2022-10-28T14:00:00;94943.69;;;21.58;30.30
61870;BME280;47810;42.264;23.826;2022-10-28T14:04:59;94937.59;;;21.56;30.19
61870;BME280;47810;42.264;23.826;2022-10-28T14:07:29;94935.63;;;21.58;29.97
61870;BME280;47810;42.264;23.826;2022-10-28T14:10:16;94929.91;;;21.23;30.29
61870;BME280;47810;42.264;23.826;2022-10-28T14:13:26;94929.22;;;20.80;31.16
61870;BME280;47810;42.264;23.826;2022-10-28T14:15:38;94931.06;;;19.54;34.51
61870;BME280;47810;42.264;23.826;2022-10-28T14:33:36;94927.50;;;16.17;42.81
61870;BME280;47810;42.264;23.826;2022-10-28T14:48:46;94930.06;;;15.00;45.75
61870;BME280;47810;42.264;23.826;2022-10-28T14:51:23;94929.16;;;14.73;46.70
61870;BME280;47810;42.264;23.826;2022-10-28T14:53:49;94929.16;;;14.87;46.41
61870;BME280;47810;42.264;23.826;2022-10-28T14:58:43;94929.59;;;14.52;46.57
61870;BME280;47810;42.264;23.826;2022-10-28T15:04:05;94929.56;;;14.66;45.66
61870;BME280;47810;42.264;23.826;2022-10-28T15:06:39;94928.44;;;14.71;45.15
61870;BME280;47810;42.264;23.826;2022-10-28T15:09:15;94922.41;;;14.54;44.81
61870;BME280;47810;42.264;23.826;2022-10-28T15:11:43;94926.44;;;14.60;44.33
61870;BME280;47810;42.264;23.826;2022-10-28T15:14:14;94932.03;;;14.70;43.41
61870;BME280;47810;42.264;23.826;2022-10-28T15:16:46;94930.97;;;14.72;43.31
61870;BME280;47810;42.264;23.826;2022-10-28T15:19:14;94928.38;;;14.58;43.41
61870;BME280;47810;42.264;23.826;2022-10-28T15:21:41;94920.81;;;14.79;42.74
61870;BME280;47810;42.264;23.826;2022-10-28T15:24:13;94931.47;;;14.50;42.72
61870;BME280;47810;42.264;23.826;2022-10-28T15:26:39;94942.19;;;14.63;41.86
61870;BME280;47810;42.264;23.826;2022-10-28T15:29:04;94935.06;;;14.78;41.91
61870;BME280;47810;42.264;23.826;2022-10-28T15:31:30;94932.69;;;14.73;41.23
61870;BME280;47810;42.264;23.826;2022-10-28T15:33:56;94936.03;;;14.62;41.59
61870;BME280;47810;42.264;23.826;2022-10-28T15:36:22;94943.22;;;14.75;41.35
61870;BME280;47810;42.264;23.826;2022-10-28T15:38:49;94947.78;;;14.44;40.88
61870;BME280;47810;42.264;23.826;2022-10-28T15:43:55;94941.19;;;14.23;40.41
61870;BME280;47810;42.264;23.826;2022-10-28T15:46:22;94946.47;;;14.08;41.05
61870;BME280;47810;42.264;23.826;2022-10-28T15:48:52;94945.16;;;14.01;40.91
61870;BME280;47810;42.264;23.826;2022-10-28T15:51:18;94946.38;;;13.81;41.08
61870;BME280;47810;42.264;23.826;2022-10-28T15:53:45;94948.50;;;13.60;41.28
61870;BME280;47810;42.264;23.826;2022-10-28T15:58:41;94944.16;;;13.73;40.48
61870;BME280;47810;42.264;23.826;2022-10-28T16:01:53;94943.88;;;13.64;40.14
61870;BME280;47810;42.264;23.826;2022-10-28T16:03:55;94938.47;;;13.65;39.90
61870;BME280;47810;42.264;23.826;2022-10-28T16:06:21;94938.47;;;13.65;39.84
61870;BME280;47810;42.264;23.826;2022-10-28T16:08:59;94940.91;;;13.54;40.41
61870;BME280;47810;42.264;23.826;2022-10-28T16:11:25;94943.50;;;13.56;40.25
61870;BME280;47810;42.264;23.826;2022-10-28T16:13:51;94936.16;;;13.45;40.60
61870;BME280;47810;42.264;23.826;2022-10-28T16:16:23;94951.88;;;13.48;40.28
61870;BME280;47810;42.264;23.826;2022-10-28T16:18:50;94944.56;;;13.37;40.75
61870;BME280;47810;42.264;23.826;2022-10-28T16:21:23;94947.00;;;13.10;41.12
61870;BME280;47810;42.264;23.826;2022-10-28T16:23:53;94945.63;;;13.03;41.34
61870;BME280;47810;42.264;23.826;2022-10-28T16:26:27;94954.00;;;13.11;41.26